createdAt,value
2023-04-15T00:01:25.767Z,15.52
2023-04-15T00:06:29.232Z,15.35
2023-04-15T00:11:34.141Z,15.10
2023-04-15T00:16:37.588Z,15.20
2023-04-15T00:21:41.285Z,15.34
2023-04-15T00:26:46.058Z,15.36
2023-04-15T00:31:49.615Z,15.28
2023-04-15T00:36:53.466Z,15.15
2023-04-15T00:41:58.871Z,14.85
2023-04-15T00:47:02.766Z,15.34
2023-04-15T00:52:06.379Z,15.34
2023-04-15T00:57:11.154Z,14.72
2023-04-15T01:02:14.702Z,15.41
2023-04-15T01:07:18.800Z,15.39
2023-04-15T01:12:23.997Z,14.99
2023-04-15T01:17:27.473Z,15.15
2023-04-15T01:22:31.441Z,15.33
2023-04-15T01:27:40.873Z,14.97
2023-04-15T01:32:44.408Z,14.74
2023-04-15T01:38:08.712Z,15.17
2023-04-15T01:43:13.464Z,13.87
2023-04-15T01:48:20.685Z,15.10
2023-04-15T01:53:25.811Z,15.54
2023-04-15T01:58:31.978Z,14.72
2023-04-15T02:03:37.325Z,14.96
2023-04-15T02:08:42.429Z,15.02
2023-04-15T02:13:48.566Z,15.04
2023-04-15T02:18:53.309Z,15.49
2023-04-15T02:23:57.994Z,14.82
2023-04-15T02:29:04.393Z,14.87
2023-04-15T02:34:09.241Z,14.68
2023-04-15T02:39:16.683Z,15.21
2023-04-15T02:44:24.820Z,15.02
2023-04-15T02:49:32.691Z,15.01
2023-04-15T02:54:38.608Z,14.51
2023-04-15T02:59:44.773Z,14.05
2023-04-15T03:04:49.839Z,14.65
2023-04-15T03:09:54.606Z,14.77
2023-04-15T03:15:02.063Z,14.24
2023-04-15T03:20:13.387Z,14.96
2023-04-15T03:25:18.422Z,15.05
2023-04-15T03:30:24.615Z,14.23
2023-04-15T03:35:29.429Z,14.52
2023-04-15T03:40:34.398Z,14.99
2023-04-15T03:45:40.553Z,14.91
2023-04-15T03:50:45.211Z,15.11
2023-04-15T03:55:50.123Z,14.86
2023-04-15T04:00:56.276Z,14.77
2023-04-15T04:06:00.964Z,14.59
2023-04-15T04:11:06.500Z,14.53
2023-04-15T04:16:12.656Z,14.28
2023-04-15T04:21:17.630Z,14.88
2023-04-15T04:26:22.718Z,13.98
2023-04-15T04:31:29.091Z,13.87
2023-04-15T04:36:33.896Z,14.83
2023-04-15T04:41:38.652Z,14.49
2023-04-15T04:46:44.702Z,13.87
2023-04-15T04:51:49.427Z,13.59
2023-04-15T04:56:54.080Z,13.93
2023-04-15T05:02:00.251Z,13.72
2023-04-15T05:07:05.135Z,13.12
2023-04-15T05:12:14.761Z,14.38
2023-04-15T05:17:20.869Z,13.56
2023-04-15T05:22:25.643Z,13.68
2023-04-15T05:27:30.747Z,14.03
2023-04-15T05:32:36.795Z,14.13
2023-04-15T05:37:41.675Z,14.34
2023-04-15T05:42:46.528Z,13.87
2023-04-15T05:47:54.378Z,14.15
2023-04-15T05:52:59.119Z,13.35
2023-04-15T05:58:04.359Z,14.12
2023-04-15T06:03:11.645Z,14.57
2023-04-15T06:08:16.476Z,13.67
2023-04-15T06:13:21.211Z,13.08
2023-04-15T06:18:27.256Z,13.60
2023-04-15T06:23:31.983Z,14.26
2023-04-15T06:28:36.631Z,13.50
2023-04-15T06:33:42.656Z,14.13
2023-04-15T06:38:47.370Z,14.66
2023-04-15T06:43:52.108Z,14.65
2023-04-15T06:48:58.149Z,14.14
2023-04-15T06:54:05.793Z,14.71
2023-04-15T06:59:10.686Z,12.86
2023-04-15T07:04:16.760Z,13.83
2023-04-15T07:09:21.718Z,14.69
2023-04-15T07:14:26.552Z,14.60
2023-04-15T07:19:32.595Z,13.71
2023-04-15T07:24:37.262Z,14.35
2023-04-15T07:29:42.139Z,14.45
2023-04-15T07:34:48.124Z,15.15
2023-04-15T07:39:52.888Z,15.49
2023-04-15T07:44:58.068Z,14.48
2023-04-15T07:50:04.260Z,14.10
2023-04-15T07:55:09.882Z,13.54
2023-04-15T08:00:16.214Z,15.35
2023-04-15T08:05:22.523Z,15.36
2023-04-15T08:10:27.407Z,14.41
2023-04-15T08:15:32.941Z,13.81
2023-04-15T08:20:39.108Z,13.98
2023-04-15T08:25:43.781Z,14.54
2023-04-15T08:30:49.019Z,12.86
2023-04-15T08:35:55.102Z,14.73
2023-04-15T08:41:01.543Z,14.67
2023-04-15T08:46:06.577Z,15.53
2023-04-15T08:51:15.995Z,14.78
2023-04-15T08:56:22.690Z,14.49
2023-04-15T09:01:28.003Z,14.55
2023-04-15T09:06:34.082Z,13.52
2023-04-15T09:11:39.076Z,14.96
2023-04-15T09:17:00.896Z,14.32
2023-04-15T09:22:07.546Z,14.80
2023-04-15T09:27:12.254Z,15.11
2023-04-15T09:32:17.506Z,15.47
2023-04-15T09:37:36.470Z,15.47
2023-04-15T09:42:56.019Z,14.97
2023-04-15T09:48:01.616Z,15.72
2023-04-15T09:53:10.526Z,16.10
2023-04-15T09:58:23.377Z,16.26
2023-04-15T10:03:30.080Z,16.08
2023-04-15T10:08:36.371Z,15.29
2023-04-15T10:13:41.223Z,15.91
2023-04-15T10:18:47.360Z,16.20
2023-04-15T10:23:53.525Z,15.84
2023-04-15T10:29:00.136Z,16.18
2023-04-15T10:34:06.504Z,16.47
2023-04-15T10:39:44.306Z,16.01
2023-04-15T10:44:51.683Z,15.16
2023-04-15T10:49:59.383Z,15.96
2023-04-15T10:55:15.624Z,16.14
2023-04-15T11:00:30.745Z,16.07
2023-04-15T11:05:51.433Z,16.21
2023-04-15T11:10:57.514Z,15.44
2023-04-15T11:16:03.459Z,14.42
2023-04-15T11:21:09.570Z,14.72
2023-04-15T11:26:15.800Z,16.60
2023-04-15T11:31:21.044Z,16.52
2023-04-15T11:36:28.171Z,16.33
2023-04-15T11:41:34.324Z,15.97
2023-04-15T11:46:39.092Z,15.20
2023-04-15T11:51:43.905Z,15.77
2023-04-15T11:56:53.566Z,16.28
2023-04-15T12:01:57.206Z,16.63
2023-04-15T12:07:06.818Z,15.85
2023-04-15T12:12:12.381Z,15.96
2023-04-15T12:17:16.732Z,16.75
2023-04-15T12:22:22.169Z,17.08
2023-04-15T12:27:29.742Z,17.35
2023-04-15T12:32:36.385Z,16.72
2023-04-15T12:37:39.803Z,17.79
2023-04-15T12:42:44.664Z,17.30
2023-04-15T12:47:50.381Z,17.64
2023-04-15T12:52:54.285Z,16.66
2023-04-15T12:57:59.121Z,16.21
2023-04-15T13:03:03.530Z,18.04
2023-04-15T13:08:09.906Z,16.23
2023-04-15T13:13:14.732Z,17.25
2023-04-15T13:18:18.176Z,17.80
2023-04-15T13:23:21.678Z,17.91
2023-04-15T13:28:34.207Z,18.49
2023-04-15T13:33:49.208Z,18.09
2023-04-15T13:38:52.750Z,18.01
2023-04-15T13:43:58.406Z,18.66
2023-04-15T13:49:01.971Z,18.90
2023-04-15T13:54:05.822Z,19.54
2023-04-15T13:59:10.959Z,18.89
2023-04-15T14:04:14.905Z,20.19
2023-04-15T14:09:18.567Z,21.11
2023-04-15T14:14:23.494Z,20.24
2023-04-15T14:19:27.794Z,20.64
2023-04-15T14:24:31.249Z,20.32
2023-04-15T14:29:36.086Z,21.26
2023-04-15T14:34:39.492Z,21.51
2023-04-15T14:39:42.905Z,20.13
2023-04-15T14:44:47.748Z,20.89
2023-04-15T14:49:51.415Z,21.45
2023-04-15T14:54:54.995Z,20.75
2023-04-15T14:59:59.849Z,21.42
2023-04-15T15:05:03.889Z,21.32
2023-04-15T15:10:08.217Z,22.03
2023-04-15T15:15:28.245Z,21.81
2023-04-15T15:20:32.935Z,21.07
2023-04-15T15:25:36.598Z,20.86
2023-04-15T15:30:41.551Z,21.00
2023-04-15T15:35:45.474Z,21.00
2023-04-15T15:40:48.854Z,20.96
2023-04-15T15:45:55.562Z,20.52
2023-04-15T15:50:59.059Z,21.34
2023-04-15T15:56:03.787Z,21.20
2023-04-15T16:01:08.663Z,20.84
2023-04-15T16:06:12.051Z,19.98
2023-04-15T16:11:16.016Z,21.13
2023-04-15T16:16:20.849Z,19.83
2023-04-15T16:21:24.837Z,20.19
2023-04-15T16:26:28.308Z,21.42
2023-04-15T16:31:34.466Z,20.31
2023-04-15T16:36:40.286Z,19.88
2023-04-15T16:41:43.738Z,20.44
2023-04-15T16:46:48.525Z,20.45
2023-04-15T16:51:53.499Z,18.68
2023-04-15T16:56:58.545Z,18.98
2023-04-15T17:02:03.386Z,19.78
2023-04-15T17:07:08.715Z,20.67
2023-04-15T17:12:12.166Z,20.65
2023-04-15T17:17:17.134Z,19.62
2023-04-15T17:22:21.012Z,20.35
2023-04-15T17:27:26.424Z,20.10
2023-04-15T17:32:34.466Z,20.18
2023-04-15T17:37:58.517Z,20.03
2023-04-15T17:43:22.054Z,19.99
2023-04-15T17:48:47.564Z,20.30
2023-04-15T17:54:10.999Z,20.45
2023-04-15T17:59:34.653Z,20.26
2023-04-15T18:04:59.605Z,19.89
2023-04-15T18:10:23.962Z,19.76
2023-04-15T18:15:48.596Z,19.89
2023-04-15T18:21:13.868Z,19.92
2023-04-15T18:26:17.510Z,20.29
2023-04-15T18:31:21.051Z,20.31
2023-04-15T18:36:26.612Z,20.26
2023-04-15T18:41:29.981Z,20.59
2023-04-15T18:46:33.418Z,20.62
2023-04-15T18:51:38.323Z,19.34
2023-04-15T18:56:41.852Z,19.46
2023-04-15T19:01:45.420Z,19.90
2023-04-15T19:06:50.243Z,19.50
2023-04-15T19:11:53.644Z,19.89
2023-04-15T19:16:57.094Z,19.57
2023-04-15T19:22:03.235Z,20.11
2023-04-15T19:27:06.724Z,20.09
2023-04-15T19:32:10.237Z,19.36
2023-04-15T19:37:15.777Z,19.20
2023-04-15T19:42:19.143Z,19.36
2023-04-15T19:47:23.751Z,19.06
2023-04-15T19:52:28.487Z,18.91
2023-04-15T19:57:32.337Z,18.40
2023-04-15T20:02:36.100Z,18.52
2023-04-15T20:07:42.412Z,19.17
2023-04-15T20:12:51.690Z,19.03
2023-04-15T20:17:56.775Z,19.23
2023-04-15T20:23:04.207Z,19.21
2023-04-15T20:28:07.648Z,18.56
2023-04-15T20:33:11.541Z,18.96
2023-04-15T20:38:17.432Z,19.03
2023-04-15T20:43:21.415Z,19.23
2023-04-15T20:48:25.299Z,18.95
2023-04-15T20:53:30.012Z,19.05
2023-04-15T20:58:33.431Z,18.72
2023-04-15T21:03:37.194Z,18.99
2023-04-15T21:08:42.172Z,19.05
2023-04-15T21:13:46.336Z,18.52
2023-04-15T21:18:49.726Z,17.65
2023-04-15T21:23:54.450Z,18.39
2023-04-15T21:28:57.831Z,18.01
2023-04-15T21:34:01.266Z,17.75
2023-04-15T21:39:06.787Z,17.94
2023-04-15T21:44:12.075Z,18.02
2023-04-15T21:49:16.756Z,18.09
2023-04-15T21:54:21.516Z,17.70
2023-04-15T21:59:24.982Z,17.79
2023-04-15T22:04:28.513Z,18.10
2023-04-15T22:09:33.499Z,16.93
2023-04-15T22:14:37.017Z,18.24
2023-04-15T22:19:40.992Z,17.80
2023-04-15T22:24:45.767Z,18.03
2023-04-15T22:29:49.177Z,18.16
2023-04-15T22:34:52.635Z,17.15
2023-04-15T22:39:57.582Z,17.51
2023-04-15T22:45:00.980Z,17.56
2023-04-15T22:50:04.688Z,17.64
2023-04-15T22:55:10.327Z,17.56
2023-04-15T23:00:14.412Z,17.68
2023-04-15T23:05:18.140Z,17.26
2023-04-15T23:10:23.176Z,17.46
2023-04-15T23:15:26.636Z,16.70
2023-04-15T23:20:30.040Z,17.23
2023-04-15T23:25:34.824Z,17.38
2023-04-15T23:30:38.566Z,17.55
2023-04-15T23:35:42.978Z,16.52
2023-04-15T23:40:47.800Z,16.08
2023-04-15T23:45:51.212Z,16.44
2023-04-15T23:50:54.648Z,16.66
2023-04-15T23:55:59.346Z,17.45
